Time;durP1;ratioP1;P1;durP2;ratioP2;P2;SDS_P1;SDS_P2;PMS_P1;PMS_P2;Temp;Humidity;BMP_temperature;BMP_pressure;BME280_temperature;BME280_humidity;BME280_pressure;Samples;Min_cycle;Max_cycle;Signal;HPM_P1;HPM_P2
2022/07/29 00:01:24;;;;;;;2.00;1.90;;;;;;;;;;5026317;28;20201;-59
2022/07/29 00:03:49;;;;;;;1.67;1.67;;;;;;;;;;5028173;28;20189;-59
2022/07/29 00:06:15;;;;;;;1.60;1.60;;;;;;;;;;5025986;28;20280;-59
2022/07/29 00:08:41;;;;;;;1.97;1.87;;;;;;;;;;5030125;28;20275;-59
2022/07/29 00:11:07;;;;;;;1.70;1.70;;;;;;;;;;5030811;28;20287;-59
2022/07/29 00:13:33;;;;;;;1.70;1.70;;;;;;;;;;5030275;28;20226;-59
2022/07/29 00:15:59;;;;;;;1.53;1.53;;;;;;;;;;5027638;28;20323;-59
2022/07/29 00:18:25;;;;;;;1.83;1.73;;;;;;;;;;5030157;28;20689;-59
2022/07/29 00:20:51;;;;;;;1.70;1.70;;;;;;;;;;5032292;28;20270;-59
2022/07/29 00:23:17;;;;;;;1.70;1.70;;;;;;;;;;5029242;28;20228;-59
2022/07/29 00:25:43;;;;;;;1.90;1.80;;;;;;;;;;5029164;28;20251;-59
2022/07/29 00:28:09;;;;;;;1.60;1.60;;;;;;;;;;5029730;28;20204;-59
2022/07/29 00:30:35;;;;;;;1.60;1.60;;;;;;;;;;5027201;28;20200;-64
2022/07/29 00:33:01;;;;;;;1.60;1.60;;;;;;;;;;5021869;28;20237;-59
2022/07/29 00:35:46;;;;;;;1.50;1.50;;;;;;;;;;5027065;28;20638;-59
2022/07/29 00:38:15;;;;;;;1.57;1.57;;;;;;;;;;5032451;28;20231;-59
2022/07/29 00:40:41;;;;;;;1.50;1.50;;;;;;;;;;5031699;28;20862;-59
2022/07/29 00:43:07;;;;;;;1.50;1.50;;;;;;;;;;5029089;28;20217;-59
2022/07/29 00:45:33;;;;;;;1.40;1.40;;;;;;;;;;5023485;28;20229;-59
2022/07/29 00:47:59;;;;;;;1.40;1.40;;;;;;;;;;5021844;28;20222;-59
2022/07/29 00:50:25;;;;;;;1.40;1.40;;;;;;;;;;5026804;28;20221;-59
2022/07/29 00:52:51;;;;;;;1.40;1.40;;;;;;;;;;5030199;28;20582;-59
2022/07/29 00:55:17;;;;;;;1.50;1.50;;;;;;;;;;5026405;28;20748;-59
2022/07/29 00:57:44;;;;;;;1.30;1.30;;;;;;;;;;5021593;28;20212;-59
2022/07/29 01:00:11;;;;;;;1.30;1.30;;;;;;;;;;5029265;28;20230;-59
2022/07/29 01:02:37;;;;;;;1.40;1.40;;;;;;;;;;5027615;28;20230;-59
2022/07/29 01:05:03;;;;;;;1.30;1.30;;;;;;;;;;5026086;28;21159;-59
2022/07/29 01:07:29;;;;;;;1.30;1.30;;;;;;;;;;5014522;28;20248;-59
2022/07/29 01:09:55;;;;;;;1.30;1.30;;;;;;;;;;5012163;28;20205;-59
2022/07/29 01:12:25;;;;;;;1.33;1.33;;;;;;;;;;5023479;28;20223;-59
2022/07/29 01:14:51;;;;;;;1.20;1.20;;;;;;;;;;5021515;28;20227;-59
2022/07/29 01:17:18;;;;;;;1.20;1.20;;;;;;;;;;5023299;28;20598;-59
2022/07/29 01:20:03;;;;;;;1.40;1.40;;;;;;;;;;5012620;28;20205;-59
2022/07/29 01:22:36;;;;;;;1.40;1.40;;;;;;;;;;5020041;28;20267;-59
2022/07/29 01:25:06;;;;;;;1.20;1.20;;;;;;;;;;5025224;28;20708;-59
2022/07/29 01:27:35;;;;;;;1.20;1.20;;;;;;;;;;5007223;28;20791;-59
2022/07/29 01:30:01;;;;;;;1.10;1.10;;;;;;;;;;5023074;28;20693;-59
2022/07/29 01:32:28;;;;;;;1.03;1.03;;;;;;;;;;5026655;28;20212;-59
2022/07/29 01:35:16;;;;;;;1.00;1.00;;;;;;;;;;5027262;28;20228;-59
2022/07/29 01:37:48;;;;;;;1.00;1.00;;;;;;;;;;5025596;28;20212;-59
2022/07/29 01:40:21;;;;;;;0.93;0.93;;;;;;;;;;5010937;28;20212;-59
2022/07/29 01:42:49;;;;;;;1.00;1.00;;;;;;;;;;5026565;28;21330;-59
2022/07/29 01:45:16;;;;;;;0.90;0.90;;;;;;;;;;5021873;28;20212;-59
2022/07/29 01:47:47;;;;;;;0.80;0.80;;;;;;;;;;5010455;28;20192;-59
2022/07/29 01:50:13;;;;;;;1.00;1.00;;;;;;;;;;5022274;28;20709;-59
2022/07/29 01:52:50;;;;;;;0.83;0.83;;;;;;;;;;5011478;28;20220;-61
2022/07/29 01:55:17;;;;;;;0.90;0.90;;;;;;;;;;5013266;28;20204;-59
2022/07/29 01:57:43;;;;;;;0.90;0.90;;;;;;;;;;5013055;28;20228;-59
2022/07/29 02:00:10;;;;;;;0.90;0.90;;;;;;;;;;5010355;28;20239;-59
2022/07/29 02:02:36;;;;;;;0.90;0.90;;;;;;;;;;5018887;28;20286;-59
2022/07/29 02:05:02;;;;;;;0.90;0.90;;;;;;;;;;5020143;28;20294;-59
2022/07/29 02:07:28;;;;;;;0.90;0.90;;;;;;;;;;5016402;28;20220;-59
2022/07/29 02:09:54;;;;;;;0.80;0.80;;;;;;;;;;5023397;28;20231;-59
2022/07/29 02:12:20;;;;;;;0.90;0.90;;;;;;;;;;5027001;28;20378;-59
2022/07/29 02:14:48;;;;;;;0.90;0.90;;;;;;;;;;5027069;28;20287;-59
2022/07/29 02:17:15;;;;;;;0.90;0.90;;;;;;;;;;5028192;28;20294;-59
2022/07/29 02:19:41;;;;;;;0.90;0.90;;;;;;;;;;5017475;28;20532;-59
2022/07/29 02:22:07;;;;;;;1.00;1.00;;;;;;;;;;5014752;28;20205;-59
2022/07/29 02:24:33;;;;;;;1.00;1.00;;;;;;;;;;5030193;28;20235;-59
2022/07/29 02:26:59;;;;;;;1.00;1.00;;;;;;;;;;5019444;28;21135;-59
2022/07/29 02:29:25;;;;;;;0.90;0.90;;;;;;;;;;5016653;28;20224;-59
2022/07/29 02:31:51;;;;;;;0.90;0.90;;;;;;;;;;5028208;28;20244;-59
2022/07/29 02:34:17;;;;;;;0.90;0.90;;;;;;;;;;5021426;28;20697;-59
2022/07/29 02:36:43;;;;;;;0.90;0.90;;;;;;;;;;5024240;28;20307;-59
2022/07/29 02:39:10;;;;;;;0.90;0.90;;;;;;;;;;5028697;28;20577;-59
2022/07/29 02:41:42;;;;;;;0.90;0.90;;;;;;;;;;5028085;28;20312;-59
2022/07/29 02:44:15;;;;;;;1.00;1.00;;;;;;;;;;5025115;28;20275;-59
2022/07/29 02:46:56;;;;;;;0.90;0.90;;;;;;;;;;5030412;28;20223;-59
2022/07/29 02:49:32;;;;;;;1.10;1.10;;;;;;;;;;5005840;28;20552;-59
2022/07/29 02:51:58;;;;;;;1.00;1.00;;;;;;;;;;5008064;28;20202;-59
2022/07/29 02:54:42;;;;;;;1.00;1.00;;;;;;;;;;5027732;28;20619;-59
2022/07/29 02:57:10;;;;;;;1.10;1.10;;;;;;;;;;5019850;28;20200;-60
2022/07/29 02:59:36;;;;;;;1.00;1.00;;;;;;;;;;5021890;28;20269;-59
2022/07/29 03:02:02;;;;;;;0.90;0.90;;;;;;;;;;5009953;28;20214;-59
2022/07/29 03:04:29;;;;;;;0.90;0.90;;;;;;;;;;5022676;28;20203;-59
2022/07/29 03:06:55;;;;;;;1.00;1.00;;;;;;;;;;5002081;28;20326;-59
2022/07/29 03:09:21;;;;;;;0.90;0.90;;;;;;;;;;5006931;28;23006;-59
2022/07/29 03:11:47;;;;;;;0.90;0.90;;;;;;;;;;5038469;28;20446;-59
2022/07/29 03:14:13;;;;;;;1.00;1.00;;;;;;;;;;5014725;28;20245;-59
2022/07/29 03:16:39;;;;;;;0.90;0.90;;;;;;;;;;5029783;28;20272;-59
2022/07/29 03:19:05;;;;;;;1.00;1.00;;;;;;;;;;5029383;28;20248;-59
2022/07/29 03:21:31;;;;;;;0.90;0.90;;;;;;;;;;5026788;28;20252;-59
2022/07/29 03:23:57;;;;;;;0.90;0.90;;;;;;;;;;5037662;28;20277;-59
2022/07/29 03:26:23;;;;;;;1.00;1.00;;;;;;;;;;5031056;28;20728;-59
2022/07/29 03:28:49;;;;;;;0.90;0.90;;;;;;;;;;5019638;28;20229;-59
2022/07/29 03:31:15;;;;;;;1.00;1.00;;;;;;;;;;5030387;28;20211;-59
2022/07/29 03:33:41;;;;;;;1.00;1.00;;;;;;;;;;5032831;28;20660;-59
2022/07/29 03:36:07;;;;;;;0.90;0.90;;;;;;;;;;5028331;28;20227;-59
2022/07/29 03:38:34;;;;;;;0.93;0.93;;;;;;;;;;5029112;28;20220;-59
2022/07/29 03:41:01;;;;;;;1.00;1.00;;;;;;;;;;5016550;28;20224;-59
2022/07/29 03:43:27;;;;;;;0.90;0.90;;;;;;;;;;5034877;28;20451;-59
2022/07/29 03:45:53;;;;;;;0.90;0.90;;;;;;;;;;5023061;28;20234;-59
2022/07/29 03:48:20;;;;;;;0.90;0.90;;;;;;;;;;5014245;28;20277;-59
2022/07/29 03:50:46;;;;;;;0.90;0.90;;;;;;;;;;5024963;28;20227;-59
2022/07/29 03:53:12;;;;;;;0.90;0.90;;;;;;;;;;5027758;28;20227;-59
2022/07/29 03:55:41;;;;;;;0.90;0.90;;;;;;;;;;5029711;28;20216;-59
2022/07/29 03:58:07;;;;;;;0.90;0.90;;;;;;;;;;5020852;28;20734;-59
2022/07/29 04:00:33;;;;;;;1.00;1.00;;;;;;;;;;5010065;28;20629;-59
2022/07/29 04:02:59;;;;;;;0.93;0.93;;;;;;;;;;5026206;28;20209;-59
2022/07/29 04:05:25;;;;;;;1.00;1.00;;;;;;;;;;5030291;28;20629;-59
2022/07/29 04:07:51;;;;;;;0.90;0.90;;;;;;;;;;5035063;28;20646;-59
2022/07/29 04:10:17;;;;;;;1.00;1.00;;;;;;;;;;5021364;28;20268;-59
2022/07/29 04:12:43;;;;;;;1.10;1.10;;;;;;;;;;5025699;28;20216;-59
2022/07/29 04:15:09;;;;;;;1.10;1.10;;;;;;;;;;5028593;28;20217;-59
2022/07/29 04:17:35;;;;;;;1.10;1.10;;;;;;;;;;5031047;28;20221;-59
2022/07/29 04:20:01;;;;;;;0.90;0.90;;;;;;;;;;5025257;28;20226;-59
2022/07/29 04:22:27;;;;;;;0.90;0.90;;;;;;;;;;5024688;28;20699;-59
2022/07/29 04:24:53;;;;;;;0.90;0.90;;;;;;;;;;5025534;28;20252;-59
2022/07/29 04:27:19;;;;;;;1.07;1.07;;;;;;;;;;5030118;28;20228;-59
2022/07/29 04:29:45;;;;;;;1.00;1.00;;;;;;;;;;5028621;28;20224;-59
2022/07/29 04:32:11;;;;;;;0.90;0.90;;;;;;;;;;5023217;28;20217;-59
2022/07/29 04:34:37;;;;;;;1.10;1.10;;;;;;;;;;5023436;28;20236;-59
2022/07/29 04:37:03;;;;;;;0.90;0.90;;;;;;;;;;5054133;28;20227;-59
2022/07/29 04:39:29;;;;;;;0.90;0.90;;;;;;;;;;5040228;28;20224;-59
2022/07/29 04:41:55;;;;;;;0.90;0.90;;;;;;;;;;5024716;28;20319;-59
2022/07/29 04:44:21;;;;;;;1.00;1.00;;;;;;;;;;5019154;28;20769;-59
2022/07/29 04:46:47;;;;;;;0.97;0.97;;;;;;;;;;5015766;28;20282;-59
2022/07/29 04:49:13;;;;;;;1.10;1.10;;;;;;;;;;5028392;28;20225;-59
2022/07/29 04:51:39;;;;;;;1.00;1.00;;;;;;;;;;5024368;28;20213;-59
2022/07/29 04:54:05;;;;;;;1.13;1.13;;;;;;;;;;5018459;28;20229;-59
2022/07/29 04:56:31;;;;;;;1.00;1.00;;;;;;;;;;5018680;28;20224;-58
2022/07/29 04:58:57;;;;;;;0.93;0.93;;;;;;;;;;5015400;28;20211;-58
2022/07/29 05:01:23;;;;;;;1.00;1.00;;;;;;;;;;5024116;28;20308;-57
2022/07/29 05:03:49;;;;;;;1.00;1.00;;;;;;;;;;5018452;28;20204;-57
2022/07/29 05:06:15;;;;;;;1.00;1.00;;;;;;;;;;5016023;28;20196;-57
2022/07/29 05:08:41;;;;;;;1.00;1.00;;;;;;;;;;5020716;28;20203;-57
2022/07/29 05:11:07;;;;;;;1.00;1.00;;;;;;;;;;5012594;28;20209;-58
2022/07/29 05:13:33;;;;;;;1.00;1.00;;;;;;;;;;5016209;28;20299;-57
2022/07/29 05:15:59;;;;;;;1.10;1.10;;;;;;;;;;5019523;28;20299;-56
2022/07/29 05:18:25;;;;;;;1.00;1.00;;;;;;;;;;5018449;28;20307;-57
2022/07/29 05:20:51;;;;;;;1.03;1.03;;;;;;;;;;5030919;28;20618;-57
2022/07/29 05:23:17;;;;;;;1.00;1.00;;;;;;;;;;5016669;28;20331;-58
2022/07/29 05:25:43;;;;;;;0.90;0.90;;;;;;;;;;5018433;28;20283;-58
2022/07/29 05:28:09;;;;;;;0.90;0.90;;;;;;;;;;5014000;28;20221;-57
2022/07/29 05:30:35;;;;;;;0.90;0.90;;;;;;;;;;5017502;28;20248;-58
2022/07/29 05:33:01;;;;;;;0.90;0.90;;;;;;;;;;5015594;28;20840;-57
2022/07/29 05:35:27;;;;;;;1.00;1.00;;;;;;;;;;5018564;28;20607;-57
2022/07/29 05:37:53;;;;;;;0.90;0.90;;;;;;;;;;5027748;28;20605;-57
2022/07/29 05:40:20;;;;;;;0.90;0.90;;;;;;;;;;5029052;28;20253;-58
2022/07/29 05:42:46;;;;;;;1.00;1.00;;;;;;;;;;5026329;28;20570;-57
2022/07/29 05:45:12;;;;;;;1.60;1.60;;;;;;;;;;5029115;28;20204;-58
2022/07/29 05:47:38;;;;;;;1.67;1.67;;;;;;;;;;5027980;28;20196;-57
2022/07/29 05:50:04;;;;;;;1.70;1.70;;;;;;;;;;5026171;28;20334;-58
2022/07/29 05:52:30;;;;;;;1.60;1.60;;;;;;;;;;5028338;28;20219;-57
2022/07/29 05:54:56;;;;;;;1.60;1.60;;;;;;;;;;5024613;28;20227;-58
2022/07/29 05:57:22;;;;;;;2.00;1.90;;;;;;;;;;5025581;28;20232;-58
2022/07/29 05:59:49;;;;;;;1.53;1.53;;;;;;;;;;5028520;28;20240;-58
2022/07/29 06:02:15;;;;;;;1.70;1.70;;;;;;;;;;5024233;28;20197;-57
2022/07/29 06:04:41;;;;;;;2.00;1.90;;;;;;;;;;5024207;28;20604;-57
2022/07/29 06:07:06;;;;;;;1.60;1.60;;;;;;;;;;5026701;28;20227;-57
2022/07/29 06:09:33;;;;;;;1.63;1.63;;;;;;;;;;5026029;28;20214;-57
2022/07/29 06:11:59;;;;;;;1.90;1.80;;;;;;;;;;5023742;28;20219;-57
2022/07/29 06:14:26;;;;;;;1.60;1.60;;;;;;;;;;5029577;28;20710;-57
2022/07/29 06:16:52;;;;;;;1.60;1.60;;;;;;;;;;5015038;28;20324;-57
2022/07/29 06:19:18;;;;;;;1.70;1.70;;;;;;;;;;5026330;28;20235;-57
2022/07/29 06:21:45;;;;;;;1.90;1.80;;;;;;;;;;5023648;28;20200;-57
2022/07/29 06:24:12;;;;;;;2.00;1.90;;;;;;;;;;5025467;28;20228;-57
2022/07/29 06:26:38;;;;;;;1.87;1.77;;;;;;;;;;5020783;28;20223;-57
2022/07/29 06:29:04;;;;;;;1.90;1.80;;;;;;;;;;5017448;28;20209;-58
2022/07/29 06:31:30;;;;;;;1.67;1.67;;;;;;;;;;5013357;28;20258;-57
2022/07/29 06:33:56;;;;;;;1.80;1.70;;;;;;;;;;5013841;28;20232;-57
2022/07/29 06:36:21;;;;;;;1.70;1.70;;;;;;;;;;5016675;28;20188;-57
2022/07/29 06:38:47;;;;;;;1.80;1.70;;;;;;;;;;5024357;28;20255;-58
2022/07/29 06:41:15;;;;;;;1.80;1.70;;;;;;;;;;5024659;28;20220;-57
2022/07/29 06:43:42;;;;;;;1.80;1.70;;;;;;;;;;5026852;28;20228;-57
2022/07/29 06:46:12;;;;;;;1.80;1.70;;;;;;;;;;5021069;28;20200;-57
2022/07/29 06:48:38;;;;;;;1.90;1.80;;;;;;;;;;5026888;28;20227;-57
2022/07/29 06:51:05;;;;;;;1.80;1.70;;;;;;;;;;5023608;28;20359;-57
2022/07/29 06:53:31;;;;;;;1.90;1.80;;;;;;;;;;5023771;28;20284;-57
2022/07/29 06:55:58;;;;;;;1.80;1.70;;;;;;;;;;5029312;28;20308;-57
2022/07/29 06:58:24;;;;;;;1.63;1.63;;;;;;;;;;5025408;28;20232;-57
2022/07/29 07:00:50;;;;;;;1.90;1.80;;;;;;;;;;5024476;28;20244;-58
2022/07/29 07:03:16;;;;;;;1.90;1.80;;;;;;;;;;5031662;28;20330;-57
2022/07/29 07:05:42;;;;;;;1.90;1.80;;;;;;;;;;5028931;28;20197;-57
2022/07/29 07:08:08;;;;;;;1.67;1.67;;;;;;;;;;5030369;28;20290;-58
2022/07/29 07:10:34;;;;;;;1.83;1.77;;;;;;;;;;5022720;28;20382;-57
2022/07/29 07:13:00;;;;;;;1.70;1.70;;;;;;;;;;5017816;28;20219;-57
2022/07/29 07:15:26;;;;;;;1.50;1.50;;;;;;;;;;5021362;28;20243;-57
2022/07/29 07:17:52;;;;;;;1.60;1.60;;;;;;;;;;5025298;28;20192;-57
2022/07/29 07:20:18;;;;;;;1.60;1.60;;;;;;;;;;5027309;28;20258;-57
2022/07/29 07:22:44;;;;;;;1.60;1.60;;;;;;;;;;5032896;28;20262;-57
2022/07/29 07:25:11;;;;;;;2.00;1.90;;;;;;;;;;5030655;28;20299;-57
2022/07/29 07:27:37;;;;;;;1.70;1.70;;;;;;;;;;5030199;28;20642;-57
2022/07/29 07:30:05;;;;;;;1.87;1.77;;;;;;;;;;5024482;28;20393;-57
2022/07/29 07:32:31;;;;;;;2.10;2.00;;;;;;;;;;5010440;28;20192;-57
2022/07/29 07:34:57;;;;;;;1.90;1.80;;;;;;;;;;5028252;28;20242;-57
2022/07/29 07:37:24;;;;;;;1.90;1.80;;;;;;;;;;5027842;28;20685;-58
2022/07/29 07:39:51;;;;;;;1.97;1.87;;;;;;;;;;5031473;28;20322;-57
2022/07/29 07:42:17;;;;;;;1.90;1.80;;;;;;;;;;5025099;28;20192;-57
2022/07/29 07:44:43;;;;;;;1.90;1.80;;;;;;;;;;5021311;28;20254;-57
2022/07/29 07:47:09;;;;;;;2.00;1.90;;;;;;;;;;5021464;28;20346;-57
2022/07/29 07:49:35;;;;;;;1.90;1.80;;;;;;;;;;5028963;28;20192;-57
2022/07/29 07:52:00;;;;;;;2.00;1.90;;;;;;;;;;5031523;28;20204;-58
2022/07/29 07:54:26;;;;;;;2.00;1.90;;;;;;;;;;5032771;28;20326;-57
2022/07/29 07:56:52;;;;;;;1.90;1.80;;;;;;;;;;5027200;28;20216;-57
2022/07/29 07:59:18;;;;;;;2.03;1.93;;;;;;;;;;5028610;28;20228;-58
2022/07/29 08:01:44;;;;;;;1.80;1.70;;;;;;;;;;5024831;28;20240;-58
2022/07/29 08:04:10;;;;;;;2.00;1.90;;;;;;;;;;5017505;28;20223;-57
2022/07/29 08:06:37;;;;;;;1.70;1.70;;;;;;;;;;5017356;28;21823;-57
2022/07/29 08:09:03;;;;;;;2.13;2.03;;;;;;;;;;5023200;28;20251;-57
2022/07/29 08:11:29;;;;;;;1.90;1.80;;;;;;;;;;5027019;28;20205;-57
2022/07/29 08:13:55;;;;;;;1.80;1.70;;;;;;;;;;5028732;28;20248;-58
2022/07/29 08:16:21;;;;;;;1.90;1.80;;;;;;;;;;5024424;28;20326;-58
2022/07/29 08:18:47;;;;;;;1.97;1.87;;;;;;;;;;5025529;28;20280;-57
2022/07/29 08:21:13;;;;;;;1.90;1.80;;;;;;;;;;5028071;28;20612;-58
2022/07/29 08:23:45;;;;;;;1.87;1.77;;;;;;;;;;5021790;28;20294;-57
2022/07/29 08:26:11;;;;;;;1.90;1.80;;;;;;;;;;5028537;28;20887;-58
2022/07/29 08:28:40;;;;;;;1.70;1.70;;;;;;;;;;5025023;28;20200;-57
2022/07/29 08:31:06;;;;;;;2.00;1.90;;;;;;;;;;5020712;28;20746;-57
2022/07/29 08:33:32;;;;;;;2.00;1.90;;;;;;;;;;5018510;28;20308;-57
2022/07/29 08:35:58;;;;;;;1.80;1.70;;;;;;;;;;5022839;28;20240;-57
2022/07/29 08:38:25;;;;;;;2.00;1.90;;;;;;;;;;5022273;28;20594;-57
2022/07/29 08:40:52;;;;;;;1.90;1.80;;;;;;;;;;5026442;28;20224;-58
2022/07/29 08:43:18;;;;;;;1.90;1.80;;;;;;;;;;5023499;28;20283;-57
2022/07/29 08:45:45;;;;;;;1.60;1.60;;;;;;;;;;5028002;28;20228;-57
2022/07/29 08:48:14;;;;;;;2.00;1.90;;;;;;;;;;5023751;28;20307;-57
2022/07/29 08:50:40;;;;;;;2.00;1.90;;;;;;;;;;5029746;28;20746;-57
2022/07/29 08:53:07;;;;;;;2.00;1.90;;;;;;;;;;5024183;28;20234;-57
2022/07/29 08:55:32;;;;;;;2.00;1.90;;;;;;;;;;5017828;28;20637;-57
2022/07/29 08:57:58;;;;;;;1.90;1.80;;;;;;;;;;5024648;28;20285;-57
2022/07/29 09:00:24;;;;;;;2.00;1.90;;;;;;;;;;5014188;28;20684;-57
2022/07/29 09:02:51;;;;;;;1.97;1.87;;;;;;;;;;5024471;28;20224;-57
2022/07/29 09:05:17;;;;;;;1.90;1.80;;;;;;;;;;5023708;28;21984;-57
2022/07/29 09:07:44;;;;;;;1.90;1.80;;;;;;;;;;5018631;28;20570;-57
2022/07/29 09:10:10;;;;;;;1.97;1.87;;;;;;;;;;5007983;28;20201;-58
2022/07/29 09:12:36;;;;;;;1.90;1.80;;;;;;;;;;5024516;28;20219;-57
2022/07/29 09:15:02;;;;;;;2.10;2.00;;;;;;;;;;5019790;28;20228;-57
2022/07/29 09:18:01;;;;;;;2.00;1.90;;;;;;;;;;5021298;28;20241;-57
2022/07/29 09:21:57;;;;;;;1.90;1.80;;;;;;;;;;5004248;28;20328;-57
2022/07/29 09:23:13;;;;;;;1.90;1.80;;;;;;;;;;5023771;28;20314;-58
2022/07/29 09:25:40;;;;;;;2.10;2.00;;;;;;;;;;5025486;28;20220;-57
2022/07/29 09:28:10;;;;;;;1.90;1.80;;;;;;;;;;5026069;28;20189;-57
2022/07/29 09:30:36;;;;;;;2.00;1.90;;;;;;;;;;5019477;28;20738;-57
2022/07/29 09:33:02;;;;;;;1.90;1.80;;;;;;;;;;5013159;28;20227;-57
2022/07/29 09:35:28;;;;;;;2.00;1.90;;;;;;;;;;5022268;28;20208;-57
2022/07/29 09:37:55;;;;;;;1.87;1.77;;;;;;;;;;5024197;28;20223;-57
2022/07/29 09:40:24;;;;;;;1.23;1.23;;;;;;;;;;5022596;28;20332;-57
2022/07/29 09:42:50;;;;;;;1.10;1.10;;;;;;;;;;5028393;28;20213;-58
2022/07/29 09:45:26;;;;;;;1.10;1.10;;;;;;;;;;5025766;28;20661;-58
2022/07/29 09:47:53;;;;;;;1.20;1.20;;;;;;;;;;5021470;28;20216;-57
2022/07/29 09:50:23;;;;;;;1.15;1.15;;;;;;;;;;5021343;28;20584;-58
2022/07/29 09:52:50;;;;;;;1.10;1.10;;;;;;;;;;5013470;28;20632;-56
2022/07/29 09:55:16;;;;;;;1.00;1.00;;;;;;;;;;5027078;28;20220;-57
2022/07/29 09:57:42;;;;;;;1.13;1.13;;;;;;;;;;5053099;28;20225;-57
2022/07/29 10:00:09;;;;;;;1.00;1.00;;;;;;;;;;5022913;28;20227;-57
2022/07/29 10:02:35;;;;;;;1.20;1.20;;;;;;;;;;5017025;28;20216;-58
2022/07/29 10:05:03;;;;;;;1.10;1.10;;;;;;;;;;5022580;28;20207;-57
2022/07/29 10:07:43;;;;;;;1.20;1.20;;;;;;;;;;5020222;28;20214;-57
2022/07/29 10:10:09;;;;;;;1.10;1.10;;;;;;;;;;5023833;28;20239;-57
2022/07/29 10:12:35;;;;;;;1.10;1.10;;;;;;;;;;5021001;28;20745;-57
2022/07/29 10:15:02;;;;;;;1.20;1.20;;;;;;;;;;5036799;28;20602;-57
2022/07/29 10:17:28;;;;;;;1.10;1.10;;;;;;;;;;5019585;28;20290;-57
2022/07/29 10:19:54;;;;;;;1.10;1.10;;;;;;;;;;5020360;28;20192;-57
2022/07/29 10:22:19;;;;;;;1.10;1.10;;;;;;;;;;5026418;28;20217;-57
2022/07/29 10:24:46;;;;;;;1.20;1.20;;;;;;;;;;5021857;28;20215;-57
2022/07/29 10:27:12;;;;;;;1.10;1.10;;;;;;;;;;5011351;28;20196;-57
2022/07/29 10:29:38;;;;;;;1.23;1.23;;;;;;;;;;5029781;28;20221;-57
2022/07/29 10:32:11;;;;;;;1.20;1.20;;;;;;;;;;5028451;28;20227;-57
2022/07/29 10:34:47;;;;;;;1.10;1.10;;;;;;;;;;5026040;28;20227;-57
2022/07/29 10:37:18;;;;;;;1.15;1.15;;;;;;;;;;5030326;28;20211;-57
2022/07/29 10:39:47;;;;;;;1.20;1.20;;;;;;;;;;5035622;28;20225;-57
2022/07/29 10:42:21;;;;;;;1.10;1.10;;;;;;;;;;5030689;28;20201;-57
2022/07/29 10:44:47;;;;;;;1.20;1.20;;;;;;;;;;5030310;28;20235;-57
2022/07/29 10:47:22;;;;;;;1.10;1.10;;;;;;;;;;5022432;28;20196;-57
2022/07/29 10:50:01;;;;;;;1.20;1.20;;;;;;;;;;5030583;28;20258;-57
2022/07/29 10:52:45;;;;;;;1.10;1.10;;;;;;;;;;5013655;28;20228;-57
2022/07/29 10:55:30;;;;;;;1.52;1.52;;;;;;;;;;5029594;28;20216;-57
2022/07/29 10:58:15;;;;;;;1.90;1.80;;;;;;;;;;5022821;28;20550;-57
2022/07/29 11:00:41;;;;;;;1.80;1.70;;;;;;;;;;5033410;28;20745;-57
2022/07/29 11:03:07;;;;;;;1.90;1.80;;;;;;;;;;5026632;28;20669;-57
2022/07/29 11:05:52;;;;;;;1.83;1.73;;;;;;;;;;5028903;28;20729;-58
2022/07/29 11:08:21;;;;;;;2.00;1.90;;;;;;;;;;5022904;28;20689;-57
2022/07/29 11:10:47;;;;;;;1.85;1.75;;;;;;;;;;5031178;28;20196;-57
2022/07/29 11:13:13;;;;;;;1.80;1.70;;;;;;;;;;5020807;28;20885;-57
2022/07/29 11:15:55;;;;;;;1.30;1.30;;;;;;;;;;5025692;28;20242;-54
2022/07/29 11:18:21;;;;;;;1.80;1.70;;;;;;;;;;5018390;28;20446;-56
2022/07/29 11:20:49;;;;;;;1.70;1.67;;;;;;;;;;5034477;28;20211;-56
2022/07/29 11:23:18;;;;;;;1.45;1.45;;;;;;;;;;5031279;28;20223;-55
2022/07/29 11:25:44;;;;;;;1.15;1.15;;;;;;;;;;5023879;28;20242;-56
2022/07/29 11:28:14;;;;;;;1.10;1.10;;;;;;;;;;5031372;28;20227;-56
2022/07/29 11:30:50;;;;;;;1.20;1.20;;;;;;;;;;5024828;28;20224;-57
2022/07/29 11:33:29;;;;;;;1.20;1.20;;;;;;;;;;5015202;28;20236;-56
2022/07/29 11:36:21;;;;;;;1.20;1.20;;;;;;;;;;5021707;28;20251;-56
2022/07/29 11:38:47;;;;;;;1.23;1.23;;;;;;;;;;5029369;28;20260;-56
2022/07/29 11:41:25;;;;;;;1.40;1.40;;;;;;;;;;5023265;28;20259;-56
2022/07/29 11:43:52;;;;;;;1.50;1.50;;;;;;;;;;5032939;28;20208;-55
2022/07/29 11:46:37;;;;;;;1.38;1.38;;;;;;;;;;5019797;28;20313;-56
2022/07/29 11:49:03;;;;;;;1.25;1.25;;;;;;;;;;5018937;28;20996;-55
2022/07/29 11:51:29;;;;;;;1.20;1.20;;;;;;;;;;5029872;28;20234;-56
2022/07/29 11:53:55;;;;;;;1.30;1.30;;;;;;;;;;5026750;28;20286;-55
2022/07/29 11:56:21;;;;;;;1.20;1.20;;;;;;;;;;5022605;28;20216;-56
2022/07/29 11:58:47;;;;;;;1.30;1.30;;;;;;;;;;5034263;28;20677;-56
2022/07/29 12:01:14;;;;;;;1.50;1.50;;;;;;;;;;5013643;28;20232;-55
2022/07/29 12:03:40;;;;;;;1.30;1.30;;;;;;;;;;5029303;28;20563;-56
2022/07/29 12:06:13;;;;;;;1.55;1.55;;;;;;;;;;5010818;28;20228;-56
2022/07/29 12:08:42;;;;;;;1.80;1.70;;;;;;;;;;5034395;28;20218;-55
2022/07/29 12:11:15;;;;;;;1.90;1.80;;;;;;;;;;5028898;28;20693;-55
2022/07/29 12:13:41;;;;;;;2.10;2.00;;;;;;;;;;5032962;28;20224;-56
2022/07/29 12:16:07;;;;;;;2.10;2.00;;;;;;;;;;5033139;28;20237;-56
2022/07/29 12:18:33;;;;;;;2.10;2.00;;;;;;;;;;5034225;28;20285;-55
2022/07/29 12:21:02;;;;;;;1.90;1.80;;;;;;;;;;5031275;28;20576;-55
2022/07/29 12:23:28;;;;;;;2.08;1.98;;;;;;;;;;5032692;28;20224;-55
2022/07/29 12:25:54;;;;;;;2.00;1.90;;;;;;;;;;5027028;28;20234;-56
2022/07/29 12:28:21;;;;;;;2.30;2.20;;;;;;;;;;5036830;28;20220;-55
2022/07/29 12:30:48;;;;;;;2.08;1.98;;;;;;;;;;5040181;28;20215;-55
2022/07/29 12:33:15;;;;;;;2.10;2.00;;;;;;;;;;5032917;28;20654;-55
2022/07/29 12:35:42;;;;;;;2.15;2.05;;;;;;;;;;5024421;28;20230;-55
2022/07/29 12:38:09;;;;;;;1.95;1.85;;;;;;;;;;5020483;28;20227;-56
2022/07/29 12:40:35;;;;;;;1.90;1.80;;;;;;;;;;5030474;28;20231;-56
2022/07/29 12:43:11;;;;;;;1.90;1.80;;;;;;;;;;5022962;28;21046;-55
2022/07/29 12:45:38;;;;;;;1.90;1.80;;;;;;;;;;5026995;28;22413;-55
2022/07/29 12:48:04;;;;;;;2.00;1.90;;;;;;;;;;5021256;28;20308;-56
2022/07/29 12:50:32;;;;;;;2.15;2.05;;;;;;;;;;5025730;28;20764;-56
2022/07/29 12:53:08;;;;;;;2.00;1.90;;;;;;;;;;5026213;28;20200;-56
2022/07/29 12:55:44;;;;;;;1.90;1.80;;;;;;;;;;5028172;28;20231;-56
2022/07/29 12:58:10;;;;;;;2.00;1.90;;;;;;;;;;5029272;28;20912;-55
2022/07/29 13:00:36;;;;;;;2.00;1.90;;;;;;;;;;5021147;28;20204;-56
2022/07/29 13:03:02;;;;;;;1.90;1.80;;;;;;;;;;5027453;28;20227;-55
2022/07/29 13:05:43;;;;;;;1.80;1.70;;;;;;;;;;5020356;28;20196;-58
2022/07/29 13:08:10;;;;;;;1.90;1.80;;;;;;;;;;5025201;28;20511;-56
2022/07/29 13:10:36;;;;;;;1.90;1.80;;;;;;;;;;5018143;28;20212;-56
2022/07/29 13:13:02;;;;;;;2.00;1.90;;;;;;;;;;5028789;28;20231;-56
2022/07/29 13:15:28;;;;;;;1.90;1.80;;;;;;;;;;5006225;28;20237;-55
2022/07/29 13:17:54;;;;;;;1.80;1.70;;;;;;;;;;5019576;28;20597;-55
2022/07/29 13:20:23;;;;;;;1.90;1.80;;;;;;;;;;5014992;28;20720;-55
2022/07/29 13:22:49;;;;;;;1.90;1.80;;;;;;;;;;5007628;28;20282;-54
2022/07/29 13:25:15;;;;;;;1.98;1.88;;;;;;;;;;5027950;28;20220;-54
2022/07/29 13:27:41;;;;;;;1.90;1.80;;;;;;;;;;5015573;28;20224;-56
2022/07/29 13:30:08;;;;;;;1.90;1.80;;;;;;;;;;5021759;28;20200;-59
2022/07/29 13:32:34;;;;;;;1.90;1.80;;;;;;;;;;5008898;28;20209;-59
2022/07/29 13:35:00;;;;;;;2.20;2.10;;;;;;;;;;5016078;28;20228;-60
2022/07/29 13:37:29;;;;;;;2.40;2.30;;;;;;;;;;5015296;28;20204;-59
2022/07/29 13:39:55;;;;;;;1.60;1.60;;;;;;;;;;5023617;28;20199;-59
2022/07/29 13:42:21;;;;;;;1.90;1.80;;;;;;;;;;5017946;28;20225;-59
2022/07/29 13:44:50;;;;;;;1.77;1.70;;;;;;;;;;5017352;28;20277;-59
2022/07/29 13:47:16;;;;;;;1.90;1.80;;;;;;;;;;5016329;28;20216;-59
2022/07/29 13:49:42;;;;;;;1.60;1.60;;;;;;;;;;5012056;28;20215;-59
2022/07/29 13:52:08;;;;;;;1.70;1.70;;;;;;;;;;5016260;28;20286;-59
2022/07/29 13:54:37;;;;;;;1.90;1.80;;;;;;;;;;5019507;28;20307;-59
2022/07/29 13:57:03;;;;;;;2.00;1.90;;;;;;;;;;5023296;28;20191;-58
2022/07/29 13:59:29;;;;;;;2.10;2.00;;;;;;;;;;5022881;28;20203;-59
2022/07/29 14:01:55;;;;;;;2.20;2.10;;;;;;;;;;5023550;28;20339;-59
2022/07/29 14:04:22;;;;;;;2.10;2.00;;;;;;;;;;5023507;28;20273;-58
2022/07/29 14:06:48;;;;;;;2.15;2.05;;;;;;;;;;5013732;28;20208;-58
2022/07/29 14:09:14;;;;;;;2.13;2.03;;;;;;;;;;5020986;28;20200;-59
2022/07/29 14:11:40;;;;;;;1.77;1.70;;;;;;;;;;5025289;28;20192;-59
2022/07/29 14:14:06;;;;;;;1.90;1.80;;;;;;;;;;5025616;28;21587;-59
2022/07/29 14:16:32;;;;;;;1.80;1.70;;;;;;;;;;5026503;28;21449;-59
2022/07/29 14:18:58;;;;;;;2.00;1.90;;;;;;;;;;5028445;28;20184;-59
2022/07/29 14:21:24;;;;;;;1.90;1.80;;;;;;;;;;5027492;28;20628;-59
2022/07/29 14:23:51;;;;;;;1.80;1.70;;;;;;;;;;5029933;28;20693;-59
2022/07/29 14:26:17;;;;;;;1.80;1.70;;;;;;;;;;5023527;28;20772;-59
2022/07/29 14:28:44;;;;;;;1.70;1.70;;;;;;;;;;5023866;28;20220;-59
2022/07/29 14:31:10;;;;;;;2.00;1.90;;;;;;;;;;5024032;28;20226;-59
2022/07/29 14:33:36;;;;;;;1.95;1.85;;;;;;;;;;5049577;28;20235;-59
2022/07/29 14:36:02;;;;;;;1.60;1.60;;;;;;;;;;5031689;28;20279;-57
2022/07/29 14:38:28;;;;;;;1.60;1.60;;;;;;;;;;5028711;28;20751;-58
2022/07/29 14:40:54;;;;;;;1.60;1.60;;;;;;;;;;5024409;28;20222;-59
2022/07/29 14:43:20;;;;;;;1.90;1.80;;;;;;;;;;5030991;28;20216;-58
2022/07/29 14:45:46;;;;;;;1.55;1.55;;;;;;;;;;5020706;28;20338;-59